createdAt,value
2019-05-14T00:00:02.343Z,103739.93
2019-05-14T00:02:35.714Z,103742.42
2019-05-14T00:05:09.062Z,103738.87
2019-05-14T00:07:42.406Z,103744.84
2019-05-14T00:10:15.769Z,103739.06
2019-05-14T00:12:51.104Z,103729.91
2019-05-14T00:15:24.119Z,103735.69
2019-05-14T00:17:57.479Z,103728.21
2019-05-14T00:20:31.556Z,103723.34
2019-05-14T00:23:06.625Z,103712.56
2019-05-14T00:25:41.769Z,103721.23
2019-05-14T00:28:14.795Z,103720.39
2019-05-14T00:30:48.336Z,103726.45
2019-05-14T00:33:22.578Z,103725.95
2019-05-14T00:35:57.412Z,103722.92
2019-05-14T00:38:31.515Z,103723.20
2019-05-14T00:41:05.157Z,103720.12
2019-05-14T00:43:38.473Z,103720.05
2019-05-14T00:46:11.980Z,103712.47
2019-05-14T00:48:45.404Z,103715.41
2019-05-14T00:51:18.738Z,103714.49
2019-05-14T00:53:52.130Z,103705.33
2019-05-14T00:56:25.427Z,103708.32
2019-05-14T00:58:58.742Z,103703.88
2019-05-14T01:01:32.077Z,103711.28
2019-05-14T01:04:05.377Z,103711.00
2019-05-14T01:06:38.890Z,103715.17
2019-05-14T01:09:12.195Z,103722.77
2019-05-14T01:11:45.553Z,103718.33
2019-05-14T01:14:21.004Z,103721.81
2019-05-14T01:16:53.898Z,103717.87
2019-05-14T01:19:27.200Z,103714.30
2019-05-14T01:22:01.706Z,103720.28
2019-05-14T01:24:36.812Z,103705.91
2019-05-14T01:27:12.319Z,103709.25
2019-05-14T01:29:46.055Z,103712.77
2019-05-14T01:32:22.117Z,103720.13
2019-05-14T01:34:55.664Z,103717.41
2019-05-14T01:37:31.069Z,103720.89
2019-05-14T01:40:05.842Z,103716.64
2019-05-14T01:42:41.613Z,103721.81
2019-05-14T01:45:24.492Z,103723.12
2019-05-14T01:47:49.242Z,103729.22
2019-05-14T01:50:24.250Z,103724.39
2019-05-14T01:52:57.787Z,103726.57
2019-05-14T01:55:32.512Z,103723.84
2019-05-14T01:58:05.959Z,103719.48
2019-05-14T02:00:41.476Z,103714.31
2019-05-14T02:03:14.336Z,103715.45
2019-05-14T02:05:47.471Z,103716.75
2019-05-14T02:08:21.439Z,103719.40
2019-05-14T02:10:54.908Z,103718.98
2019-05-14T02:13:28.223Z,103722.89
2019-05-14T02:16:02.197Z,103720.70
2019-05-14T02:18:37.124Z,103712.00
2019-05-14T02:21:11.790Z,103710.55
2019-05-14T02:23:45.378Z,103716.68
2019-05-14T02:26:18.705Z,103721.89
2019-05-14T02:28:52.286Z,103717.98
2019-05-14T02:31:29.040Z,103711.89
2019-05-14T02:34:00.631Z,103706.17
2019-05-14T02:36:35.586Z,103705.72
2019-05-14T02:39:10.304Z,103700.09
2019-05-14T02:41:43.829Z,103692.64
2019-05-14T02:44:18.919Z,103686.59
2019-05-14T02:46:52.358Z,103688.20
2019-05-14T02:49:25.687Z,103683.38
2019-05-14T02:51:59.214Z,103679.84
2019-05-14T02:54:33.808Z,103681.61
2019-05-14T02:57:10.366Z,103684.02
2019-05-14T02:59:42.158Z,103672.76
2019-05-14T03:02:15.494Z,103681.45
2019-05-14T03:04:49.910Z,103677.05
2019-05-14T03:07:23.449Z,103672.22
2019-05-14T03:09:59.337Z,103671.76
2019-05-14T03:12:31.822Z,103678.54
2019-05-14T03:15:09.635Z,103685.47
2019-05-14T03:17:43.386Z,103673.90
2019-05-14T03:20:19.605Z,103672.45
2019-05-14T03:23:03.292Z,103669.80
2019-05-14T03:25:29.949Z,103672.33
2019-05-14T03:28:02.115Z,103669.72
2019-05-14T03:30:35.699Z,103670.95
2019-05-14T03:33:13.175Z,103671.38
2019-05-14T03:35:56.327Z,103677.47
2019-05-14T03:38:19.827Z,103664.55
2019-05-14T03:40:53.234Z,103673.10
2019-05-14T03:43:29.381Z,103663.45
2019-05-14T03:46:01.590Z,103661.38
2019-05-14T03:48:35.207Z,103668.83
2019-05-14T03:51:09.139Z,103667.68
2019-05-14T03:53:56.963Z,103672.11
2019-05-14T03:56:19.245Z,103666.81
2019-05-14T03:58:52.921Z,103659.32
2019-05-14T04:01:29.465Z,103662.71
2019-05-14T04:04:01.278Z,103661.63
2019-05-14T04:06:34.585Z,103663.89
2019-05-14T04:09:09.675Z,103664.56
2019-05-14T04:11:43.927Z,103659.69
2019-05-14T04:14:20.110Z,103645.52
2019-05-14T04:17:08.104Z,103650.13
2019-05-14T04:19:29.554Z,103642.82
2019-05-14T04:22:03.117Z,103633.38
2019-05-14T04:24:41.057Z,103630.00
2019-05-14T04:27:13.620Z,103630.98
2019-05-14T04:29:49.909Z,103632.38
2019-05-14T04:32:22.264Z,103628.08
2019-05-14T04:34:59.444Z,103635.98
2019-05-14T04:37:30.710Z,103637.34
2019-05-14T04:40:09.658Z,103639.09
2019-05-14T04:42:41.439Z,103640.06
2019-05-14T04:45:15.032Z,103630.83
2019-05-14T04:47:49.815Z,103632.64
2019-05-14T04:50:25.711Z,103636.16
2019-05-14T04:52:59.953Z,103636.91
2019-05-14T04:55:40.202Z,103631.63
2019-05-14T04:58:14.524Z,103633.19
2019-05-14T05:00:49.883Z,103631.41
2019-05-14T05:03:23.208Z,103637.47
2019-05-14T05:05:58.932Z,103630.48
2019-05-14T05:08:31.597Z,103633.82
2019-05-14T05:11:04.929Z,103631.52
2019-05-14T05:13:39.520Z,103632.21
2019-05-14T05:16:13.351Z,103627.66
2019-05-14T05:18:49.086Z,103620.39
2019-05-14T05:21:21.709Z,103623.64
2019-05-14T05:23:55.238Z,103626.89
2019-05-14T05:26:28.870Z,103623.20
2019-05-14T05:29:06.660Z,103624.54
2019-05-14T05:31:38.110Z,103618.58
2019-05-14T05:34:11.628Z,103616.67
2019-05-14T05:36:44.937Z,103622.38
2019-05-14T05:39:18.968Z,103626.55
2019-05-14T05:41:52.421Z,103628.59
2019-05-14T05:44:25.763Z,103624.68
2019-05-14T05:46:59.807Z,103626.81
2019-05-14T05:49:33.230Z,103609.15
2019-05-14T05:52:08.590Z,103608.30
2019-05-14T05:54:42.121Z,103612.33
2019-05-14T05:57:15.529Z,103615.53
2019-05-14T05:59:49.198Z,103616.39
2019-05-14T06:02:22.675Z,103619.87
2019-05-14T06:04:55.993Z,103606.84
2019-05-14T06:07:29.345Z,103606.99
2019-05-14T06:10:08.023Z,103614.17
2019-05-14T06:12:41.485Z,103621.52
2019-05-14T06:15:14.798Z,103625.47
2019-05-14T06:17:49.217Z,103618.44
2019-05-14T06:20:22.686Z,103619.20
2019-05-14T06:22:56.124Z,103621.73
2019-05-14T06:25:31.120Z,103627.31
2019-05-14T06:28:04.644Z,103623.37
2019-05-14T06:30:39.692Z,103627.55
2019-05-14T06:33:14.140Z,103622.51
2019-05-14T06:35:48.636Z,103624.39
2019-05-14T06:38:22.425Z,103626.09
2019-05-14T06:40:55.726Z,103622.14
2019-05-14T06:43:29.305Z,103619.80
2019-05-14T06:46:02.619Z,103623.30
2019-05-14T06:48:35.770Z,103628.94
2019-05-14T06:51:09.103Z,103624.41
2019-05-14T06:53:42.695Z,103620.92
2019-05-14T06:56:18.852Z,103622.05
2019-05-14T06:58:51.240Z,103617.61
2019-05-14T07:01:24.554Z,103618.43
2019-05-14T07:03:58.234Z,103617.13
2019-05-14T07:06:31.491Z,103614.39
2019-05-14T07:09:08.045Z,103609.92
2019-05-14T07:11:40.775Z,103622.22
2019-05-14T07:14:18.791Z,103619.19
2019-05-14T07:16:51.653Z,103616.58
2019-05-14T07:19:26.076Z,103610.23
2019-05-14T07:21:59.384Z,103542.91
2019-05-14T07:24:37.199Z,103606.14
2019-05-14T07:27:09.715Z,103603.50
2019-05-14T07:29:43.213Z,103603.28
2019-05-14T07:32:19.113Z,103608.66
2019-05-14T07:34:52.688Z,103604.09
2019-05-14T07:37:28.568Z,103606.96
2019-05-14T07:40:01.554Z,103601.96
2019-05-14T07:42:34.721Z,103605.62
2019-05-14T07:45:09.640Z,103605.70
2019-05-14T07:47:43.332Z,103613.73
2019-05-14T07:50:19.618Z,103606.80
2019-05-14T07:52:52.728Z,103606.00
2019-05-14T07:55:26.294Z,103599.98
2019-05-14T07:57:59.780Z,103594.90
2019-05-14T08:00:33.096Z,103598.39
2019-05-14T08:03:08.249Z,103595.91
2019-05-14T08:05:41.710Z,103593.30
2019-05-14T08:08:15.082Z,103593.42
2019-05-14T08:10:48.916Z,103602.87
2019-05-14T08:13:23.908Z,103596.13
2019-05-14T08:15:58.362Z,103587.09
2019-05-14T08:18:32.241Z,103587.48
2019-05-14T08:21:05.720Z,103585.06
2019-05-14T08:23:40.647Z,103572.80
2019-05-14T08:26:14.001Z,103571.11
2019-05-14T08:28:48.948Z,103576.14
2019-05-14T08:31:22.405Z,103559.98
2019-05-14T08:33:55.726Z,103557.14
2019-05-14T08:36:29.082Z,103552.77
2019-05-14T08:39:02.390Z,103545.41
2019-05-14T08:41:38.439Z,103540.68
2019-05-14T08:44:11.898Z,103542.42
2019-05-14T08:46:45.436Z,103522.38
2019-05-14T08:49:18.745Z,103519.33
2019-05-14T08:51:52.215Z,103520.24
2019-05-14T08:54:25.568Z,103521.89
2019-05-14T08:56:58.893Z,103465.30
2019-05-14T08:59:32.202Z,103530.91
2019-05-14T09:02:06.920Z,103524.26
2019-05-14T09:04:42.846Z,103526.62
2019-05-14T09:07:18.364Z,103517.86
2019-05-14T09:09:50.782Z,103520.82
2019-05-14T09:12:24.368Z,103528.19
2019-05-14T09:14:58.837Z,103527.63
2019-05-14T09:17:33.409Z,103525.44
2019-05-14T09:20:08.410Z,103512.67
2019-05-14T09:22:41.892Z,103517.86
2019-05-14T09:25:15.211Z,103523.61
2019-05-14T09:27:49.278Z,103520.48
2019-05-14T09:30:23.122Z,103519.09
2019-05-14T09:32:59.167Z,103517.38
2019-05-14T09:35:31.531Z,103519.95
2019-05-14T09:38:04.870Z,103526.40
2019-05-14T09:40:39.712Z,103515.58
2019-05-14T09:43:13.428Z,103522.61
2019-05-14T09:45:48.192Z,103516.44
2019-05-14T09:48:21.697Z,103521.55
2019-05-14T09:50:55.014Z,103505.55
2019-05-14T09:53:28.862Z,103497.28
2019-05-14T09:56:02.497Z,103500.00
2019-05-14T09:58:35.856Z,103497.82
2019-05-14T10:01:09.209Z,103484.22
2019-05-14T10:03:42.620Z,103476.34
2019-05-14T10:06:16.002Z,103463.77
2019-05-14T10:08:49.376Z,103471.69
2019-05-14T10:11:22.917Z,103459.80
2019-05-14T10:13:56.284Z,103455.88
2019-05-14T10:16:29.425Z,103454.69
2019-05-14T10:19:02.571Z,103452.00
2019-05-14T10:21:38.868Z,103454.91
2019-05-14T10:24:12.309Z,103439.35
2019-05-14T10:26:49.050Z,103436.27
2019-05-14T10:29:22.485Z,103429.17
2019-05-14T10:31:55.816Z,103430.50
2019-05-14T10:34:29.151Z,103438.84
2019-05-14T10:37:02.511Z,103434.42
2019-05-14T10:39:38.846Z,103430.37
2019-05-14T10:42:10.912Z,103427.38
2019-05-14T10:44:44.251Z,103433.86
2019-05-14T10:47:18.744Z,103425.53
2019-05-14T10:49:52.303Z,103420.22
2019-05-14T10:52:25.634Z,103420.28
2019-05-14T10:54:59.224Z,103422.51
2019-05-14T10:57:33.758Z,103412.35
2019-05-14T11:00:08.907Z,103410.84
2019-05-14T11:02:42.137Z,103414.41
2019-05-14T11:05:15.664Z,103407.70
2019-05-14T11:07:49.041Z,103398.40
2019-05-14T11:10:22.578Z,103408.09
2019-05-14T11:12:55.773Z,103398.58
2019-05-14T11:15:29.172Z,103388.35
2019-05-14T11:18:02.540Z,103387.20
2019-05-14T11:20:41.742Z,103378.27
2019-05-14T11:23:12.550Z,103385.33
2019-05-14T11:25:45.879Z,103374.02
2019-05-14T11:28:19.315Z,103371.76
2019-05-14T11:30:52.750Z,103367.75
2019-05-14T11:33:29.502Z,103369.36
2019-05-14T11:36:02.596Z,103367.51
2019-05-14T11:38:37.628Z,103362.82
2019-05-14T11:41:10.962Z,103369.09
2019-05-14T11:43:44.520Z,103361.11
2019-05-14T11:46:26.127Z,103353.58
2019-05-14T11:48:52.941Z,103354.83
2019-05-14T11:51:54.772Z,103351.47
2019-05-14T11:54:01.309Z,103349.02
2019-05-14T11:56:34.735Z,103359.39
2019-05-14T11:59:08.641Z,103341.09
2019-05-14T12:01:42.110Z,103340.34
2019-05-14T12:04:15.470Z,103338.08
2019-05-14T12:06:48.799Z,103342.30
2019-05-14T12:09:22.385Z,103332.63
2019-05-14T12:11:55.805Z,103323.35
2019-05-14T12:14:29.144Z,103323.78
2019-05-14T12:17:02.498Z,103314.44
2019-05-14T12:19:35.820Z,103304.00
2019-05-14T12:22:11.761Z,103306.16
2019-05-14T12:24:44.203Z,103294.92
2019-05-14T12:27:19.157Z,103300.16
2019-05-14T12:29:52.759Z,103290.51
2019-05-14T12:32:26.124Z,103281.06
2019-05-14T12:34:59.487Z,103273.72
2019-05-14T12:37:32.842Z,103268.93
2019-05-14T12:40:08.792Z,103268.09
2019-05-14T12:42:43.162Z,103271.20
2019-05-14T12:45:19.124Z,103270.39
2019-05-14T12:47:52.201Z,103273.92
2019-05-14T12:50:25.867Z,103275.30
2019-05-14T12:52:59.232Z,103276.18
2019-05-14T12:55:32.617Z,103190.16
2019-05-14T12:58:08.128Z,103253.84
2019-05-14T13:00:41.035Z,103245.14
2019-05-14T13:03:14.382Z,103246.95
2019-05-14T13:05:49.130Z,103248.29
2019-05-14T13:08:22.665Z,103249.67
2019-05-14T13:10:58.447Z,103253.19
2019-05-14T13:13:31.016Z,103245.39
2019-05-14T13:16:04.594Z,103239.50
2019-05-14T13:18:38.846Z,103233.34
2019-05-14T13:21:12.286Z,103232.54
2019-05-14T13:23:45.715Z,103231.10
2019-05-14T13:26:19.254Z,103225.42
2019-05-14T13:28:52.586Z,103218.52
2019-05-14T13:31:25.905Z,103220.78
2019-05-14T13:33:59.642Z,103219.91
2019-05-14T13:36:33.160Z,103214.30
2019-05-14T13:39:09.305Z,103219.63
2019-05-14T13:41:43.067Z,103211.40
2019-05-14T13:44:24.349Z,103208.05
2019-05-14T13:46:51.942Z,103199.46
2019-05-14T13:49:25.282Z,103196.11
2019-05-14T13:51:58.656Z,103186.58
2019-05-14T13:54:32.096Z,103186.96
2019-05-14T13:57:05.437Z,103186.93
2019-05-14T13:59:43.873Z,103185.95
2019-05-14T14:02:14.037Z,103181.58
2019-05-14T14:04:48.256Z,103174.55
2019-05-14T14:07:21.798Z,103179.76
2019-05-14T14:09:55.155Z,103170.10
2019-05-14T14:12:29.299Z,103164.06
2019-05-14T14:15:05.754Z,103162.23
2019-05-14T14:17:41.075Z,103157.38
2019-05-14T14:20:14.833Z,103162.58
2019-05-14T14:22:49.016Z,103166.07
2019-05-14T14:25:22.687Z,103162.92
2019-05-14T14:28:00.184Z,103168.54
2019-05-14T14:30:31.161Z,103164.61
2019-05-14T14:33:04.513Z,103166.75
2019-05-14T14:35:38.816Z,103157.53
2019-05-14T14:38:12.194Z,103165.78
2019-05-14T14:40:45.564Z,103167.50
2019-05-14T14:43:19.115Z,103163.31
2019-05-14T14:45:52.654Z,103155.29
2019-05-14T14:48:25.950Z,103150.43
2019-05-14T14:51:00.380Z,103152.13
2019-05-14T14:53:50.463Z,103147.73
2019-05-14T14:56:09.741Z,103146.39
2019-05-14T14:58:43.276Z,103129.30
2019-05-14T15:01:19.539Z,103131.03
2019-05-14T15:03:51.668Z,103122.27
2019-05-14T15:06:25.063Z,103121.37
2019-05-14T15:08:58.953Z,103117.45
2019-05-14T15:11:32.395Z,103110.41
2019-05-14T15:14:08.297Z,103113.02
2019-05-14T15:16:40.749Z,103098.19
2019-05-14T15:19:14.060Z,103101.05
2019-05-14T15:21:48.915Z,103104.85
2019-05-14T15:24:22.960Z,103097.87
2019-05-14T15:27:06.533Z,103082.55
2019-05-14T15:29:31.643Z,103080.36
2019-05-14T15:32:04.971Z,103089.91
2019-05-14T15:34:38.305Z,103085.09
2019-05-14T15:37:11.634Z,103084.61
2019-05-14T15:39:45.153Z,103086.80
2019-05-14T15:42:19.381Z,103084.99
2019-05-14T15:44:56.051Z,103080.15
2019-05-14T15:47:29.648Z,103079.26
2019-05-14T15:50:03.186Z,103074.05
2019-05-14T15:52:39.031Z,103065.30
2019-05-14T15:55:11.743Z,103077.70
2019-05-14T15:57:45.220Z,103073.66
2019-05-14T16:00:19.806Z,103064.05
2019-05-14T16:02:54.902Z,103072.77
2019-05-14T16:05:28.764Z,103070.55
2019-05-14T16:08:02.368Z,103062.25
2019-05-14T16:10:36.079Z,103058.75
2019-05-14T16:13:09.640Z,103064.00
2019-05-14T16:15:43.439Z,103057.90
2019-05-14T16:18:21.635Z,103052.66
2019-05-14T16:20:52.933Z,103047.00
2019-05-14T16:23:28.204Z,103053.53
2019-05-14T16:26:01.293Z,103038.26
2019-05-14T16:28:35.707Z,103032.60
2019-05-14T16:31:09.257Z,102991.84
2019-05-14T16:33:42.795Z,103037.84
2019-05-14T16:36:18.321Z,103036.09
2019-05-14T16:38:51.337Z,103041.00
2019-05-14T16:41:24.722Z,103034.92
2019-05-14T16:43:58.777Z,103034.50
2019-05-14T16:46:32.186Z,103036.25
2019-05-14T16:49:05.555Z,103039.30
2019-05-14T16:51:38.898Z,103034.92
2019-05-14T16:54:12.218Z,103041.48
2019-05-14T16:56:48.134Z,103030.53
2019-05-14T16:59:20.914Z,103034.05
2019-05-14T17:01:54.613Z,103028.83
2019-05-14T17:04:29.300Z,103032.75
2019-05-14T17:07:02.929Z,103024.64
2019-05-14T17:09:38.505Z,103020.61
2019-05-14T17:12:11.492Z,103022.29
2019-05-14T17:14:44.804Z,103014.00
2019-05-14T17:17:20.153Z,103014.00
2019-05-14T17:19:53.395Z,103012.64
2019-05-14T17:22:30.782Z,103010.50
2019-05-14T17:25:01.860Z,103014.43
2019-05-14T17:27:35.356Z,103012.69
2019-05-14T17:30:08.897Z,103011.38
2019-05-14T17:32:42.536Z,103004.83
2019-05-14T17:35:15.848Z,103003.09
2019-05-14T17:37:49.199Z,102995.23
2019-05-14T17:40:22.498Z,103007.94
2019-05-14T17:42:55.856Z,103001.39
2019-05-14T17:45:29.258Z,103005.77
2019-05-14T17:48:02.681Z,103000.53
2019-05-14T17:50:38.228Z,103003.15
2019-05-14T17:53:11.017Z,102997.48
2019-05-14T17:55:47.468Z,102995.30
2019-05-14T17:58:19.410Z,102991.95
2019-05-14T18:00:52.732Z,103002.28
2019-05-14T18:03:29.010Z,102998.73
2019-05-14T18:06:02.713Z,102990.88
2019-05-14T18:08:36.232Z,102989.52
2019-05-14T18:11:09.600Z,102989.08
2019-05-14T18:13:42.930Z,102991.19
2019-05-14T18:16:16.274Z,102992.09
2019-05-14T18:18:49.725Z,102992.09
2019-05-14T18:21:23.127Z,102989.42
2019-05-14T18:23:58.543Z,102982.89
2019-05-14T18:26:31.566Z,102977.20
2019-05-14T18:29:04.892Z,102978.89
2019-05-14T18:31:44.156Z,102983.77
2019-05-14T18:34:13.538Z,102983.27
2019-05-14T18:36:48.886Z,102977.15
2019-05-14T18:39:21.993Z,102979.77
2019-05-14T18:41:55.407Z,102975.78
2019-05-14T18:44:28.721Z,102970.05
2019-05-14T18:47:02.091Z,102966.48
2019-05-14T18:49:35.414Z,102898.50
2019-05-14T18:52:09.029Z,102970.55
2019-05-14T18:54:43.457Z,102968.69
2019-05-14T18:57:18.122Z,102963.02
2019-05-14T18:59:51.673Z,102968.30
2019-05-14T19:02:26.259Z,102961.27
2019-05-14T19:04:59.584Z,102969.97
2019-05-14T19:07:34.158Z,102970.44
2019-05-14T19:10:09.340Z,102973.89
2019-05-14T19:12:42.773Z,102976.89
2019-05-14T19:15:18.396Z,102971.22
2019-05-14T19:17:51.166Z,102971.23
2019-05-14T19:20:24.649Z,102910.34
2019-05-14T19:23:00.189Z,102980.91
2019-05-14T19:25:33.014Z,102980.94
2019-05-14T19:28:08.766Z,102982.25
2019-05-14T19:30:41.580Z,102938.11
2019-05-14T19:33:14.966Z,102990.53
2019-05-14T19:35:48.567Z,102982.70
2019-05-14T19:38:23.212Z,102989.13
2019-05-14T19:40:56.559Z,102987.18
2019-05-14T19:43:29.909Z,102993.67
2019-05-14T19:46:03.451Z,102993.23
2019-05-14T19:48:36.805Z,102990.98
2019-05-14T19:51:10.194Z,102991.92
2019-05-14T19:53:45.032Z,102997.52
2019-05-14T19:56:18.340Z,102996.14
2019-05-14T19:58:53.280Z,102995.83
2019-05-14T20:01:28.775Z,102998.77
2019-05-14T20:04:02.217Z,102999.19
2019-05-14T20:06:38.611Z,103000.27
2019-05-14T20:09:11.055Z,103000.06
2019-05-14T20:11:44.179Z,103000.05
2019-05-14T20:14:18.273Z,103006.61
2019-05-14T20:16:51.584Z,103002.98
2019-05-14T20:19:24.925Z,103001.72
2019-05-14T20:21:58.746Z,103003.25
2019-05-14T20:24:32.171Z,103007.89
2019-05-14T20:27:09.302Z,103006.95
2019-05-14T20:29:40.502Z,103002.17
2019-05-14T20:32:13.633Z,102995.06
2019-05-14T20:34:48.702Z,103000.69
2019-05-14T20:37:23.275Z,102999.70
2019-05-14T20:39:59.003Z,103004.00
2019-05-14T20:42:31.856Z,103003.23
2019-05-14T20:45:06.338Z,103001.80
2019-05-14T20:47:40.743Z,102916.33
2019-05-14T20:50:14.156Z,103002.17
2019-05-14T20:52:48.331Z,103001.28
2019-05-14T20:55:21.934Z,103010.02
2019-05-14T20:57:55.297Z,102992.58
2019-05-14T21:00:29.248Z,102999.98
2019-05-14T21:03:02.889Z,102999.98
2019-05-14T21:05:38.855Z,102999.12
2019-05-14T21:08:13.629Z,103002.54
2019-05-14T21:10:49.460Z,103004.25
2019-05-14T21:13:22.206Z,102997.66
2019-05-14T21:15:55.805Z,103002.51
2019-05-14T21:18:35.213Z,103002.08
2019-05-14T21:21:04.368Z,102996.41
2019-05-14T21:23:38.304Z,103003.33
2019-05-14T21:26:11.800Z,102997.03
2019-05-14T21:28:45.446Z,102995.09
2019-05-14T21:31:18.790Z,102991.98
2019-05-14T21:33:52.189Z,102993.22
2019-05-14T21:36:25.553Z,102986.20
2019-05-14T21:38:58.919Z,102986.16
2019-05-14T21:41:32.271Z,102987.86
2019-05-14T21:44:08.051Z,102986.55
2019-05-14T21:46:40.804Z,102986.93
2019-05-14T21:49:14.163Z,102984.30
2019-05-14T21:51:48.348Z,102986.06
2019-05-14T21:54:22.668Z,102983.00
2019-05-14T21:56:56.011Z,102977.77
2019-05-14T21:59:31.101Z,102972.53
2019-05-14T22:02:05.394Z,102973.83
2019-05-14T22:04:38.826Z,102977.70
2019-05-14T22:07:12.204Z,102981.17
2019-05-14T22:09:45.905Z,102976.80
2019-05-14T22:12:20.651Z,102973.77
2019-05-14T22:14:55.186Z,102970.28
2019-05-14T22:17:28.584Z,102970.27
2019-05-14T22:20:02.004Z,102963.29
2019-05-14T22:22:35.387Z,102966.34
2019-05-14T22:25:09.129Z,102965.03
2019-05-14T22:27:42.474Z,102966.27
2019-05-14T22:30:18.045Z,102964.52
2019-05-14T22:32:50.899Z,102963.62
2019-05-14T22:35:24.282Z,102961.47
2019-05-14T22:37:59.591Z,102967.55
2019-05-14T22:40:32.696Z,102893.41
2019-05-14T22:43:08.860Z,102963.09
2019-05-14T22:45:41.117Z,102962.80
2019-05-14T22:48:15.707Z,102957.92
2019-05-14T22:50:49.077Z,102958.30
2019-05-14T22:53:22.549Z,102961.78
2019-05-14T22:55:58.575Z,102960.02
2019-05-14T22:58:33.278Z,102958.27
2019-05-14T23:01:14.562Z,102959.52
2019-05-14T23:03:42.312Z,102959.52
2019-05-14T23:06:15.675Z,102958.18
2019-05-14T23:08:49.054Z,102956.38
2019-05-14T23:11:23.419Z,102957.69
2019-05-14T23:13:58.204Z,102951.58
2019-05-14T23:16:37.774Z,102955.49
2019-05-14T23:19:08.022Z,102956.02
2019-05-14T23:21:41.562Z,102955.05
2019-05-14T23:24:14.910Z,102956.28
2019-05-14T23:26:49.287Z,102959.75
2019-05-14T23:29:22.795Z,102959.30
2019-05-14T23:31:58.654Z,102952.30
2019-05-14T23:34:31.165Z,102950.14
2019-05-14T23:37:04.755Z,102952.30
2019-05-14T23:39:38.496Z,102942.72
2019-05-14T23:42:11.860Z,102947.95
2019-05-14T23:44:45.215Z,102947.03
2019-05-14T23:47:19.297Z,102942.22
2019-05-14T23:49:52.814Z,102944.80
2019-05-14T23:52:29.067Z,102950.81
2019-05-14T23:55:01.259Z,102950.36
2019-05-14T23:57:34.591Z,102939.91
